Time;durP1;ratioP1;P1;durP2;ratioP2;P2;SDS_P1;SDS_P2;PMS_P1;PMS_P2;Temp;Humidity;BMP_temperature;BMP_pressure;BME280_temperature;BME280_humidity;BME280_pressure;Samples;Min_cycle;Max_cycle;Signal;HPM_P1;HPM_P2
2021/01/25 00:01:52;;;;;;;8.15;3.30;;;;;;;-0.95;61.45;94124.31;4952252;28;20051;-46
2021/01/25 00:04:19;;;;;;;5.95;2.80;;;;;;;-0.92;60.89;94128.25;4967725;28;20456;-48
2021/01/25 00:06:46;;;;;;;6.20;2.88;;;;;;;-0.56;59.80;94130.00;4953494;28;20058;-46
2021/01/25 00:09:12;;;;;;;6.15;2.80;;;;;;;-0.52;59.77;94121.13;4953660;28;20169;-55
2021/01/25 00:11:39;;;;;;;5.60;2.88;;;;;;;-0.33;59.05;94117.41;4953902;28;20062;-49
2021/01/25 00:14:05;;;;;;;5.90;2.75;;;;;;;-0.46;59.62;94124.41;4952470;28;20055;-47
2021/01/25 00:16:32;;;;;;;4.70;2.53;;;;;;;-0.60;59.72;94129.81;4963042;28;20218;-51
2021/01/25 00:18:59;;;;;;;5.80;2.90;;;;;;;-0.82;61.24;94125.31;4941519;28;20492;-54
2021/01/25 00:21:25;;;;;;;5.78;2.90;;;;;;;-1.14;61.87;94115.00;4934873;29;20126;-49
2021/01/25 00:23:52;;;;;;;5.38;2.85;;;;;;;-1.28;62.36;94126.44;4968172;28;20501;-51
2021/01/25 00:26:19;;;;;;;7.72;2.90;;;;;;;-1.18;62.71;94147.44;4953935;28;20211;-53
2021/01/25 00:28:45;;;;;;;4.85;2.80;;;;;;;-1.31;62.80;94134.22;4948749;28;20074;-51
2021/01/25 00:31:12;;;;;;;8.27;3.42;;;;;;;-1.58;63.31;94124.50;4950445;28;20110;-50
2021/01/25 00:33:38;;;;;;;5.43;3.00;;;;;;;-1.51;63.19;94117.69;4952875;28;20532;-50
2021/01/25 00:36:05;;;;;;;5.07;2.78;;;;;;;-1.43;63.01;94134.75;4952484;28;20050;-48
2021/01/25 00:38:31;;;;;;;5.63;2.80;;;;;;;-1.20;62.63;94136.34;4943788;28;20130;-51
2021/01/25 00:40:58;;;;;;;6.25;2.60;;;;;;;-1.53;63.27;94133.13;4967570;28;20043;-52
2021/01/25 00:43:24;;;;;;;5.20;2.55;;;;;;;-1.57;63.30;94136.69;4951762;28;20116;-53
2021/01/25 00:45:50;;;;;;;7.63;2.97;;;;;;;-1.40;62.77;94136.81;4947219;28;20051;-49
2021/01/25 00:48:17;;;;;;;7.13;2.55;;;;;;;-1.27;62.37;94125.38;4949980;28;20051;-44
2021/01/25 00:50:44;;;;;;;6.28;3.03;;;;;;;-1.16;63.10;94127.78;4936652;29;20048;-49
2021/01/25 00:53:14;;;;;;;5.68;2.45;;;;;;;-0.74;60.71;94121.94;4963867;28;20061;-48
2021/01/25 00:55:40;;;;;;;6.38;2.80;;;;;;;-1.22;62.06;94119.16;4967081;28;20074;-46
2021/01/25 00:58:07;;;;;;;4.80;2.40;;;;;;;-1.46;62.87;94111.50;4950105;28;20154;-50
2021/01/25 01:00:33;;;;;;;4.55;2.50;;;;;;;-1.14;61.74;94122.94;4947942;28;20524;-54
2021/01/25 01:03:00;;;;;;;7.35;2.60;;;;;;;-0.87;60.89;94109.53;4952470;28;20129;-54
2021/01/25 01:05:26;;;;;;;7.35;2.70;;;;;;;-0.93;61.31;94112.63;4952431;28;20047;-54
2021/01/25 01:07:53;;;;;;;4.57;2.60;;;;;;;-1.42;62.85;94112.47;4948383;28;20166;-48
2021/01/25 01:10:19;;;;;;;4.18;2.42;;;;;;;-1.31;62.23;94100.53;4952995;28;20058;-50
2021/01/25 01:12:46;;;;;;;6.80;2.50;;;;;;;-1.44;62.81;94098.72;4950842;28;20102;-50
2021/01/25 01:15:13;;;;;;;6.65;2.58;;;;;;;-1.68;63.29;94099.00;4953262;28;20055;-50
2021/01/25 01:17:41;;;;;;;8.15;3.53;;;;;;;-1.54;63.34;94104.25;4946799;28;20114;-53
2021/01/25 01:20:10;;;;;;;3.97;2.25;;;;;;;-1.53;63.05;94080.06;4941358;29;20508;-50
2021/01/25 01:22:37;;;;;;;5.00;2.58;;;;;;;-1.13;62.11;94090.81;4942279;28;20535;-46
2021/01/25 01:25:08;;;;;;;5.95;2.80;;;;;;;-1.34;62.73;94095.81;4952254;28;20585;-47
2021/01/25 01:27:35;;;;;;;4.40;2.50;;;;;;;-1.54;63.15;94105.03;4952320;28;20065;-51
2021/01/25 01:30:02;;;;;;;8.98;2.80;;;;;;;-1.45;62.94;94089.19;4941238;28;20062;-52
2021/01/25 01:32:29;;;;;;;10.82;3.00;;;;;;;-1.58;62.77;94088.16;4940155;29;20053;-50
2021/01/25 01:34:56;;;;;;;4.28;2.55;;;;;;;-1.55;62.84;94097.41;4952660;28;20043;-51
2021/01/25 01:37:22;;;;;;;4.00;2.42;;;;;;;-1.49;63.21;94088.25;4937421;28;20083;-53
2021/01/25 01:39:49;;;;;;;5.32;2.75;;;;;;;-1.24;62.35;94089.47;4945071;29;20225;-54
2021/01/25 01:42:18;;;;;;;4.88;2.70;;;;;;;-1.30;61.05;94080.88;4950652;28;20130;-54
2021/01/25 01:44:45;;;;;;;6.22;2.60;;;;;;;-1.42;61.49;94085.94;4951271;28;20138;-51
2021/01/25 01:47:15;;;;;;;4.28;2.60;;;;;;;-1.33;60.74;94076.19;4953137;28;20055;-51
2021/01/25 01:49:42;;;;;;;4.70;2.30;;;;;;;-1.67;61.46;94077.47;4945314;28;20560;-50
2021/01/25 01:52:09;;;;;;;5.13;2.67;;;;;;;-1.77;61.58;94077.72;4947518;28;20057;-50
2021/01/25 01:54:35;;;;;;;4.70;2.33;;;;;;;-1.93;62.23;94073.84;4951127;28;20069;-51
2021/01/25 01:57:01;;;;;;;5.13;2.25;;;;;;;-2.08;62.59;94071.50;4952858;28;20061;-51
2021/01/25 01:59:28;;;;;;;4.22;2.40;;;;;;;-2.08;62.72;94076.81;4949652;28;20051;-49
2021/01/25 02:01:57;;;;;;;4.53;2.58;;;;;;;-1.94;62.30;94074.94;4951872;28;20138;-47
2021/01/25 02:04:25;;;;;;;4.85;2.20;;;;;;;-2.09;62.17;94065.44;4945576;28;20079;-47
2021/01/25 02:06:54;;;;;;;6.32;2.47;;;;;;;-1.99;61.95;94075.81;4937646;29;20043;-52
2021/01/25 02:09:20;;;;;;;4.35;2.28;;;;;;;-2.01;62.32;94071.91;4938730;28;20190;-51
2021/01/25 02:11:46;;;;;;;3.75;2.40;;;;;;;-2.07;62.50;94062.50;4955485;28;20055;-49
2021/01/25 02:14:13;;;;;;;6.88;2.30;;;;;;;-1.98;61.65;94050.09;4955436;28;20067;-51
2021/01/25 02:16:41;;;;;;;4.65;2.47;;;;;;;-1.66;61.72;94052.56;4956465;28;20450;-48
2021/01/25 02:19:24;;;;;;;4.47;2.30;;;;;;;-1.43;60.73;94058.66;4952918;28;20052;-49
2021/01/25 02:22:01;;;;;;;8.38;2.55;;;;;;;-1.74;61.29;94053.25;4937052;29;20063;-50
2021/01/25 02:24:58;;;;;;;6.50;2.40;;;;;;;-1.56;61.69;94062.16;4946386;28;20122;-53
2021/01/25 02:27:36;;;;;;;8.13;2.63;;;;;;;-1.61;60.95;94056.16;4956368;28;20631;-46
2021/01/25 02:30:07;;;;;;;5.32;2.20;;;;;;;-2.06;61.58;94032.25;4943949;28;20134;-50
2021/01/25 02:32:35;;;;;;;5.65;2.35;;;;;;;-2.07;61.39;94036.00;4936945;28;20062;-45
2021/01/25 02:35:06;;;;;;;4.00;2.25;;;;;;;-1.83;60.66;94047.09;4951158;28;20062;-45
2021/01/25 02:37:33;;;;;;;4.25;2.13;;;;;;;-1.55;60.14;94054.97;4969621;28;20061;-45
2021/01/25 02:40:00;;;;;;;3.53;2.20;;;;;;;-1.45;59.56;94044.88;4954478;28;20458;-46
2021/01/25 02:42:27;;;;;;;3.72;2.33;;;;;;;-1.24;58.36;94036.41;4955125;28;20098;-48
2021/01/25 02:44:55;;;;;;;3.63;2.20;;;;;;;-1.29;58.61;94029.38;4956220;28;20054;-44
2021/01/25 02:47:22;;;;;;;4.80;2.20;;;;;;;-1.45;58.91;94005.09;4946154;28;20074;-47
2021/01/25 02:49:49;;;;;;;4.40;2.38;;;;;;;-1.31;58.67;94014.84;4954465;29;20062;-47
2021/01/25 02:52:16;;;;;;;5.07;2.40;;;;;;;-1.70;59.12;94011.81;4955175;28;20420;-47
2021/01/25 02:54:43;;;;;;;4.20;2.10;;;;;;;-1.97;59.69;93998.69;4969671;28;20131;-46
2021/01/25 02:57:13;;;;;;;3.65;2.08;;;;;;;-1.91;59.25;93992.97;4953842;29;20051;-49
2021/01/25 02:59:40;;;;;;;3.83;1.90;;;;;;;-2.27;59.87;93998.28;4955422;28;20134;-50
2021/01/25 03:02:08;;;;;;;4.65;1.80;;;;;;;-2.54;60.84;94001.75;4965374;23;20058;-50
2021/01/25 03:04:36;;;;;;;3.55;1.92;;;;;;;-2.71;61.84;94002.38;4925755;29;20150;-53
2021/01/25 03:07:03;;;;;;;3.45;1.90;;;;;;;-2.54;61.37;94001.75;4923595;29;20059;-48
2021/01/25 03:09:31;;;;;;;3.38;1.70;;;;;;;-2.30;60.23;94006.81;4936512;29;20051;-49
2021/01/25 03:12:00;;;;;;;3.88;1.90;;;;;;;-2.41;60.74;94008.88;4933654;29;20093;-48
2021/01/25 03:14:27;;;;;;;3.92;2.00;;;;;;;-2.02;59.62;94002.22;4902470;28;20080;-47
2021/01/25 03:16:55;;;;;;;5.70;1.70;;;;;;;-1.93;58.89;94000.41;4920269;29;20054;-47
2021/01/25 03:19:21;;;;;;;3.45;1.80;;;;;;;-1.82;58.52;93994.88;4928293;29;20056;-48
2021/01/25 03:21:53;;;;;;;6.28;2.67;;;;;;;-1.75;58.27;93998.69;4934281;29;20124;-49
2021/01/25 03:24:20;;;;;;;4.80;1.73;;;;;;;-1.78;58.34;93977.28;4950350;29;20123;-51
2021/01/25 03:26:47;;;;;;;4.93;1.90;;;;;;;-1.59;58.08;94003.59;4933348;29;20052;-48
2021/01/25 03:29:14;;;;;;;5.15;1.80;;;;;;;-1.52;57.61;93996.03;4907658;28;20445;-50
2021/01/25 03:31:40;;;;;;;4.38;2.30;;;;;;;-1.35;57.24;94004.06;4929969;29;20448;-50
2021/01/25 03:34:07;;;;;;;5.05;1.98;;;;;;;-1.83;58.44;93994.09;4933593;28;20131;-49
2021/01/25 03:36:35;;;;;;;3.42;1.80;;;;;;;-1.87;58.49;93993.13;4924638;28;20494;-49
2021/01/25 03:39:03;;;;;;;3.72;1.70;;;;;;;-2.03;58.60;93997.22;4918749;29;20056;-51
2021/01/25 03:41:29;;;;;;;6.50;1.80;;;;;;;-1.80;58.21;93996.13;4934163;29;20094;-49
2021/01/25 03:43:55;;;;;;;3.78;1.73;;;;;;;-1.52;57.47;93988.84;4929284;29;20087;-50
2021/01/25 03:46:22;;;;;;;3.17;1.70;;;;;;;-1.81;57.84;93988.50;4899311;29;20407;-49
2021/01/25 03:48:48;;;;;;;3.72;1.77;;;;;;;-1.82;57.57;93994.88;4933827;29;20111;-50
2021/01/25 03:51:15;;;;;;;3.42;1.60;;;;;;;-1.77;57.24;93998.19;4898068;29;20053;-49
2021/01/25 03:53:41;;;;;;;2.70;1.42;;;;;;;-2.35;58.64;93999.75;4930992;29;20135;-49
2021/01/25 03:56:08;;;;;;;4.57;1.80;;;;;;;-2.13;58.54;93996.38;4935411;29;20054;-48
2021/01/25 03:58:34;;;;;;;5.13;1.90;;;;;;;-2.23;58.75;93995.81;4917526;28;20062;-49
2021/01/25 04:01:00;;;;;;;4.35;1.85;;;;;;;-2.17;58.14;93994.63;4897895;29;20056;-48
2021/01/25 04:03:27;;;;;;;3.15;1.63;;;;;;;-2.17;58.75;93991.97;4928305;29;20051;-50
2021/01/25 04:05:54;;;;;;;5.43;1.85;;;;;;;-2.11;57.70;93988.13;4923952;29;20089;-49
2021/01/25 04:08:20;;;;;;;4.82;1.55;;;;;;;-1.94;57.60;93998.84;4926802;29;20139;-50
2021/01/25 04:10:47;;;;;;;3.13;1.50;;;;;;;-1.76;57.20;93991.78;4933502;29;20102;-48
2021/01/25 04:13:13;;;;;;;3.13;1.90;;;;;;;-1.65;56.53;93995.00;4932487;29;20416;-49
2021/01/25 04:15:39;;;;;;;3.60;2.00;;;;;;;-1.85;57.02;93998.13;4921274;29;20521;-49
2021/01/25 04:18:06;;;;;;;4.90;1.60;;;;;;;-2.07;57.62;94001.56;4935093;29;20059;-49
2021/01/25 04:20:32;;;;;;;3.85;2.13;;;;;;;-2.23;57.92;93999.25;4916472;28;20126;-48
2021/01/25 04:22:59;;;;;;;3.25;1.48;;;;;;;-2.20;58.12;94005.81;4934264;29;20056;-48
2021/01/25 04:25:25;;;;;;;4.00;1.60;;;;;;;-2.14;57.47;93991.38;4932933;28;20044;-49
2021/01/25 04:27:52;;;;;;;3.55;1.90;;;;;;;-2.02;57.77;93998.78;4931138;29;20058;-47
2021/01/25 04:30:19;;;;;;;2.92;1.45;;;;;;;-2.24;57.21;93983.63;4932365;29;20058;-49
2021/01/25 04:32:45;;;;;;;4.13;1.75;;;;;;;-2.41;58.32;94000.16;4933261;29;20067;-48
2021/01/25 04:35:14;;;;;;;2.80;1.30;;;;;;;-2.10;57.71;93999.50;4926333;29;20052;-48
2021/01/25 04:37:41;;;;;;;3.35;1.40;;;;;;;-2.02;57.47;93996.13;4897173;29;20060;-49
2021/01/25 04:40:09;;;;;;;4.75;1.60;;;;;;;-2.17;57.65;93989.31;4910068;29;20086;-47
2021/01/25 04:42:38;;;;;;;5.43;1.80;;;;;;;-2.04;57.37;93987.72;4933945;29;20062;-48
2021/01/25 04:45:07;;;;;;;3.72;1.70;;;;;;;-1.99;57.13;93984.94;4913596;28;20132;-48
2021/01/25 04:47:35;;;;;;;3.65;1.65;;;;;;;-1.78;56.74;93982.59;4911484;29;20060;-50
2021/01/25 04:50:04;;;;;;;3.00;1.60;;;;;;;-1.60;56.23;93999.38;4919777;29;20047;-49
2021/01/25 04:52:32;;;;;;;4.15;1.60;;;;;;;-1.45;56.06;94006.97;4934517;29;20565;-48
2021/01/25 04:55:01;;;;;;;7.93;2.08;;;;;;;-1.53;56.40;93997.09;4933913;29;20390;-52
2021/01/25 04:57:31;;;;;;;6.00;3.38;;;;;;;-2.32;58.88;94003.69;4946404;28;20056;-49
2021/01/25 05:00:01;;;;;;;4.97;1.80;;;;;;;-2.54;59.79;93996.44;4932683;28;20094;-52
2021/01/25 05:02:28;;;;;;;9.07;2.15;;;;;;;-2.34;59.55;94005.81;4931743;29;20134;-48
2021/01/25 05:04:55;;;;;;;4.13;1.77;;;;;;;-2.61;59.79;94012.75;4934486;29;20134;-48
2021/01/25 05:07:25;;;;;;;9.68;1.58;;;;;;;-2.58;59.64;94012.16;4930322;29;20517;-51
2021/01/25 05:09:51;;;;;;;3.90;1.40;;;;;;;-2.26;58.75;94013.09;4897077;29;20051;-47
2021/01/25 05:12:18;;;;;;;5.15;1.77;;;;;;;-2.08;58.04;94002.63;4896183;29;20536;-51
2021/01/25 05:14:44;;;;;;;6.80;1.88;;;;;;;-2.09;58.25;93999.19;4928880;29;20095;-49
2021/01/25 05:17:12;;;;;;;5.50;2.03;;;;;;;-1.74;57.06;94012.72;4896683;29;20089;-48
2021/01/25 05:19:42;;;;;;;7.13;2.25;;;;;;;-1.86;57.00;94000.00;4923461;29;20127;-48
2021/01/25 05:22:21;;;;;;;6.85;2.00;;;;;;;-1.75;58.65;94019.88;4915058;29;20462;-49
2021/01/25 05:24:52;;;;;;;6.53;2.00;;;;;;;-1.79;58.41;94018.13;4932115;29;20063;-49
2021/01/25 05:27:28;;;;;;;7.13;1.38;;;;;;;-1.89;55.92;94011.97;4946889;29;20051;-52
2021/01/25 05:30:11;;;;;;;3.20;1.55;;;;;;;-1.93;56.56;94012.88;4904401;29;20057;-49
2021/01/25 05:32:51;;;;;;;1.77;1.30;;;;;;;-1.91;55.93;94013.38;4895791;29;20063;-49
2021/01/25 05:35:29;;;;;;;5.22;1.50;;;;;;;-2.37;56.02;94001.94;4926069;29;20430;-48
2021/01/25 05:38:07;;;;;;;3.17;1.20;;;;;;;-2.28;56.27;94027.69;4920748;29;20151;-50
2021/01/25 05:40:36;;;;;;;2.33;1.02;;;;;;;-2.53;55.26;94015.81;4924412;29;20044;-49
2021/01/25 05:43:13;;;;;;;6.15;1.30;;;;;;;-2.46;55.17;94024.91;4933262;28;20139;-49
2021/01/25 05:45:40;;;;;;;3.00;1.50;;;;;;;-2.25;54.45;94013.88;4946848;29;20080;-47
2021/01/25 05:48:07;;;;;;;2.85;1.20;;;;;;;-2.12;53.83;94007.75;4910718;29;20518;-50
2021/01/25 05:50:36;;;;;;;3.45;1.30;;;;;;;-1.59;52.96;94036.22;4903082;29;20498;-48
2021/01/25 05:53:03;;;;;;;3.67;1.30;;;;;;;-1.85;52.50;94020.13;4902189;29;20245;-49
2021/01/25 05:55:30;;;;;;;4.13;1.40;;;;;;;-1.86;52.57;94026.50;4919601;29;20044;-49
2021/01/25 05:57:57;;;;;;;3.85;1.63;;;;;;;-1.81;52.95;94018.44;4914429;29;20048;-48
2021/01/25 06:00:25;;;;;;;4.20;1.40;;;;;;;-1.90;52.52;94023.66;4914632;29;20445;-47
2021/01/25 06:02:53;;;;;;;4.88;1.40;;;;;;;-1.81;52.52;94025.63;4918170;29;20801;-49
2021/01/25 06:05:42;;;;;;;6.05;1.50;;;;;;;-2.17;52.71;94013.94;4929107;29;20474;-48
2021/01/25 06:08:47;;;;;;;3.67;1.45;;;;;;;-1.86;52.24;94037.09;4910777;29;20468;-51
2021/01/25 06:11:27;;;;;;;5.90;1.52;;;;;;;-1.80;52.33;94040.44;4911029;29;20056;-52
2021/01/25 06:14:00;;;;;;;;;;;;;;;-1.96;52.01;94047.94;4914841;29;20154;-47
2021/01/25 06:16:28;;;;;;;4.60;1.88;;;;;;;-2.23;52.26;94049.56;4914310;29;19923;-51
2021/01/25 06:19:03;;;;;;;4.05;1.58;;;;;;;-2.10;53.54;94057.78;4913145;29;20051;-49
2021/01/25 06:21:37;;;;;;;10.05;2.17;;;;;;;-2.38;53.79;94069.19;4913072;29;20052;-50
2021/01/25 06:24:04;;;;;;;;;;;;;;;-2.23;53.68;94065.47;4914593;29;20450;-48
2021/01/25 06:26:33;;;;;;;8.57;1.38;;;;;;;-2.27;53.93;94063.72;4914865;29;20112;-50
2021/01/25 06:29:09;;;;;;;27.17;3.85;;;;;;;-2.36;54.46;94047.75;4912769;29;20056;-48
2021/01/25 06:31:40;;;;;;;5.38;1.48;;;;;;;-2.32;53.83;94053.22;4928795;29;20501;-53
2021/01/25 06:34:09;;;;;;;27.30;2.95;;;;;;;-2.04;54.98;94056.59;4914036;29;20048;-48
2021/01/25 06:36:39;;;;;;;5.28;1.48;;;;;;;-2.15;52.58;94062.09;4928531;29;20191;-50
2021/01/25 06:39:07;;;;;;;8.70;1.65;;;;;;;-2.01;53.12;94062.09;4911488;29;20241;-50
2021/01/25 06:41:41;;;;;;;17.60;2.28;;;;;;;-2.60;53.03;94016.16;4915053;29;20079;-51
2021/01/25 06:44:10;;;;;;;9.68;1.42;;;;;;;-2.48;53.56;94068.63;4914829;29;20108;-52
2021/01/25 06:46:39;;;;;;;3.80;1.40;;;;;;;-2.62;54.86;94074.72;4928190;29;20257;-49
2021/01/25 06:49:07;;;;;;;8.07;1.35;;;;;;;-2.69;55.65;94081.50;4896864;29;20120;-48
2021/01/25 06:51:42;;;;;;;2.20;1.10;;;;;;;-2.71;55.41;94073.84;4896434;29;20067;-50
2021/01/25 06:54:11;;;;;;;6.07;1.50;;;;;;;-2.26;54.13;94070.59;4898821;29;20139;-50
2021/01/25 06:56:51;;;;;;;4.13;2.03;;;;;;;-1.78;53.02;94070.84;4917060;29;20196;-49
2021/01/25 06:59:28;;;;;;;14.20;2.25;;;;;;;-1.60;53.49;94071.75;4917431;29;20062;-48
2021/01/25 07:01:55;;;;;;;3.53;1.40;;;;;;;-1.62;52.20;94060.69;4918966;29;20044;-51
2021/01/25 07:04:28;;;;;;;9.10;1.40;;;;;;;-1.73;53.02;94089.28;4926768;29;20095;-48
2021/01/25 07:06:56;;;;;;;7.53;1.65;;;;;;;-1.75;53.32;94093.34;4914462;29;20060;-49
2021/01/25 07:09:25;;;;;;;8.10;2.05;;;;;;;-1.54;52.73;94088.34;4915479;29;20083;-49
2021/01/25 07:11:52;;;;;;;6.25;1.70;;;;;;;-1.60;53.25;94100.94;4917617;29;20458;-51
2021/01/25 07:14:24;;;;;;;6.63;1.55;;;;;;;-1.80;53.86;94099.53;4917766;29;20143;-48
2021/01/25 07:16:53;;;;;;;5.75;1.58;;;;;;;-1.68;53.54;94110.41;4905545;29;20060;-48
2021/01/25 07:19:21;;;;;;;6.03;1.58;;;;;;;-1.80;54.00;94125.25;4898872;29;20390;-49
2021/01/25 07:21:49;;;;;;;5.90;1.33;;;;;;;-1.28;52.82;94115.84;4899518;29;20056;-47
2021/01/25 07:24:19;;;;;;;4.85;1.50;;;;;;;-0.90;51.98;94115.47;4899181;29;20377;-48
2021/01/25 07:26:50;;;;;;;11.73;2.05;;;;;;;-0.75;51.45;94109.78;4899350;29;20419;-49
2021/01/25 07:29:16;;;;;;;30.52;11.05;;;;;;;-0.78;52.00;94117.53;4899279;29;20080;-48
2021/01/25 07:31:43;;;;;;;8.27;1.85;;;;;;;-1.41;54.75;94116.69;4898643;29;20056;-47
2021/01/25 07:34:10;;;;;;;8.75;2.00;;;;;;;-1.29;56.18;94097.59;4898473;29;20057;-48
2021/01/25 07:36:38;;;;;;;11.57;2.05;;;;;;;-1.27;57.77;94120.09;4899195;29;20056;-47
2021/01/25 07:39:09;;;;;;;11.07;4.10;;;;;;;-1.84;58.71;94106.50;4898845;29;20128;-50
2021/01/25 07:41:37;;;;;;;7.90;1.92;;;;;;;-2.04;61.87;94109.59;4898651;29;20468;-48
2021/01/25 07:44:05;;;;;;;3.97;1.60;;;;;;;-2.21;63.99;94126.91;4898798;29;20095;-49
2021/01/25 07:46:33;;;;;;;3.03;1.30;;;;;;;-2.38;69.02;94116.09;4898867;29;20445;-48
2021/01/25 07:48:59;;;;;;;4.28;1.38;;;;;;;-2.58;72.78;94117.28;4912386;29;20055;-50
2021/01/25 07:51:28;;;;;;;4.80;1.60;;;;;;;-2.40;73.33;94108.47;4923510;29;20059;-51
2021/01/25 07:53:56;;;;;;;4.18;1.42;;;;;;;-2.15;74.07;94104.50;4933501;28;20055;-48
2021/01/25 07:56:25;;;;;;;4.68;2.28;;;;;;;-1.99;73.44;94082.97;4927945;28;20052;-47
2021/01/25 07:59:08;;;;;;;3.80;1.63;;;;;;;-1.99;73.91;94106.84;4932831;29;20110;-50
2021/01/25 08:02:03;;;;;;;8.85;2.28;;;;;;;-1.75;74.01;94101.28;4933273;29;20052;-49
2021/01/25 08:04:35;;;;;;;4.88;2.22;;;;;;;-1.75;74.75;94103.94;4933071;29;20450;-51
2021/01/25 08:07:02;;;;;;;6.88;2.28;;;;;;;-1.61;74.30;94107.34;4923400;28;20118;-47
2021/01/25 08:09:31;;;;;;;15.45;4.07;;;;;;;-1.64;74.10;94102.63;4935998;28;20135;-50
2021/01/25 08:11:59;;;;;;;4.80;1.95;;;;;;;-2.23;76.22;94107.06;4916333;28;20192;-49
2021/01/25 08:14:48;;;;;;;8.30;1.60;;;;;;;-2.32;77.52;94108.84;4916784;29;20498;-50
2021/01/25 08:17:37;;;;;;;4.88;2.13;;;;;;;-2.18;77.67;94107.75;4916201;29;20111;-49
2021/01/25 08:20:12;;;;;;;5.03;2.20;;;;;;;-2.19;78.51;94105.41;4907486;29;20502;-47
2021/01/25 08:22:51;;;;;;;6.72;2.88;;;;;;;-2.47;79.29;94102.78;4916787;29;20541;-48
2021/01/25 08:25:23;;;;;;;5.80;2.33;;;;;;;-2.57;79.70;94105.59;4916909;29;20052;-49
2021/01/25 08:27:56;;;;;;;4.78;2.10;;;;;;;-2.45;79.88;94105.91;4911484;29;20079;-48
2021/01/25 08:30:23;;;;;;;9.73;2.25;;;;;;;-2.47;79.27;94102.78;4899963;29;20108;-52
2021/01/25 08:32:55;;;;;;;4.80;2.00;;;;;;;-2.19;78.21;94103.53;4931951;29;20052;-52
2021/01/25 08:35:39;;;;;;;4.07;1.88;;;;;;;-2.33;77.99;94115.22;4903251;29;20413;-50
2021/01/25 08:38:25;;;;;;;7.07;2.30;;;;;;;-2.09;77.29;94112.34;4919737;29;20147;-52
2021/01/25 08:40:53;;;;;;;4.90;2.42;;;;;;;-1.91;76.20;94114.09;4920340;28;20059;-51
2021/01/25 08:43:31;;;;;;;12.95;3.28;;;;;;;-1.97;75.95;94116.06;4922411;29;20071;-54
2021/01/25 08:46:13;;;;;;;14.02;7.70;;;;;;;-1.99;76.69;94122.72;4915644;29;20104;-50
2021/01/25 08:48:41;;;;;;;5.00;2.05;;;;;;;-1.86;76.30;94111.31;4932746;29;20437;-50
2021/01/25 08:51:25;;;;;;;5.72;1.63;;;;;;;-1.75;76.14;94122.50;4930160;29;20063;-49
2021/01/25 08:54:00;;;;;;;5.85;1.80;;;;;;;-1.67;76.08;94133.16;4921354;29;20091;-52
2021/01/25 08:56:44;;;;;;;3.88;1.73;;;;;;;-1.74;75.25;94130.16;4914628;29;20547;-52
2021/01/25 08:59:13;;;;;;;3.25;1.60;;;;;;;-1.89;76.21;94118.00;4912254;29;20136;-51
2021/01/25 09:01:43;;;;;;;4.30;1.70;;;;;;;-1.67;75.48;94132.38;4931943;29;20052;-48
2021/01/25 09:04:10;;;;;;;3.20;1.60;;;;;;;-1.64;75.50;94145.06;4928882;29;20067;-50
2021/01/25 09:06:50;;;;;;;4.05;1.42;;;;;;;-1.37;75.08;94133.56;4913787;29;20057;-52
2021/01/25 09:09:18;;;;;;;1.70;1.10;;;;;;;-1.11;73.88;94146.22;4915571;29;20513;-49
2021/01/25 09:11:45;;;;;;;2.03;1.27;;;;;;;-0.63;72.74;94143.72;4916055;29;20080;-51
2021/01/25 09:14:16;;;;;;;4.90;1.73;;;;;;;-0.69;72.58;94134.31;4909804;29;20498;-48
2021/01/25 09:16:44;;;;;;;4.32;1.48;;;;;;;-0.89;73.25;94146.22;4914942;29;20115;-48
2021/01/25 09:19:11;;;;;;;6.30;1.70;;;;;;;-0.86;73.12;94150.94;4913611;29;20075;-51
2021/01/25 09:21:38;;;;;;;2.88;1.50;;;;;;;-1.00;72.98;94147.56;4916820;29;20060;-50
2021/01/25 09:24:05;;;;;;;2.80;1.70;;;;;;;-0.98;73.13;94148.81;4921787;29;20054;-49
2021/01/25 09:26:31;;;;;;;3.65;1.77;;;;;;;-1.20;75.36;94149.63;4920121;29;20100;-50
2021/01/25 09:28:58;;;;;;;4.70;1.75;;;;;;;-1.14;74.90;94141.53;4914056;29;20529;-48
2021/01/25 09:31:26;;;;;;;3.00;1.77;;;;;;;-1.29;75.99;94155.94;4915881;29;20111;-48
2021/01/25 09:33:55;;;;;;;6.20;1.55;;;;;;;-1.13;75.96;94159.03;4934277;29;20059;-49
2021/01/25 09:36:21;;;;;;;4.05;1.50;;;;;;;-1.24;75.90;94140.69;4933330;28;20111;-48
2021/01/25 09:39:06;;;;;;;2.95;1.80;;;;;;;-0.98;77.28;94172.72;4917138;29;20123;-51
2021/01/25 09:41:33;;;;;;;3.75;1.80;;;;;;;-1.08;77.17;94166.88;4914286;29;20469;-50
2021/01/25 09:44:00;;;;;;;4.35;1.70;;;;;;;-0.97;76.71;94179.59;4917976;29;20451;-49
2021/01/25 09:46:26;;;;;;;3.35;1.60;;;;;;;-0.92;76.91;94177.91;4908233;29;20075;-51
2021/01/25 09:48:53;;;;;;;3.05;1.83;;;;;;;-0.80;76.76;94176.28;4922858;29;20083;-50
2021/01/25 09:51:19;;;;;;;4.38;2.05;;;;;;;-0.69;76.04;94182.09;4909570;29;20406;-49
2021/01/25 09:53:45;;;;;;;6.97;2.83;;;;;;;-0.71;76.07;94168.38;4918515;29;20056;-48
2021/01/25 09:56:12;;;;;;;4.35;1.95;;;;;;;-0.89;76.77;94175.44;4930286;29;20123;-50
2021/01/25 09:58:39;;;;;;;3.63;2.05;;;;;;;-1.00;78.53;94179.44;4914304;29;20060;-51
2021/01/25 10:01:05;;;;;;;6.65;2.50;;;;;;;-0.77;77.44;94183.63;4929421;29;20064;-52
2021/01/25 10:03:32;;;;;;;5.63;2.65;;;;;;;-0.66;77.43;94186.03;4919726;29;20116;-52
2021/01/25 10:05:59;;;;;;;6.63;2.33;;;;;;;-0.52;76.59;94190.19;4915445;29;20056;-53
2021/01/25 10:08:25;;;;;;;5.85;2.47;;;;;;;-0.54;77.10;94197.66;4928644;29;20076;-49
2021/01/25 10:10:52;;;;;;;4.05;2.17;;;;;;;-0.70;78.15;94185.84;4934821;29;20079;-50
2021/01/25 10:13:18;;;;;;;5.78;2.25;;;;;;;-0.62;78.65;94194.94;4932221;29;20135;-49
2021/01/25 10:15:45;;;;;;;6.95;2.63;;;;;;;-0.32;77.72;94191.53;4912295;28;20080;-49
2021/01/25 10:18:11;;;;;;;5.15;2.33;;;;;;;-0.65;78.82;94195.56;4910646;29;20103;-50
2021/01/25 10:20:38;;;;;;;4.65;2.45;;;;;;;-0.49;79.01;94199.41;4901433;29;20479;-52
2021/01/25 10:23:04;;;;;;;4.28;2.50;;;;;;;-0.21;78.02;94196.56;4910195;29;20505;-50
2021/01/25 10:25:31;;;;;;;5.65;2.63;;;;;;;0.00;77.12;94194.94;4914953;29;20107;-51
2021/01/25 10:27:57;;;;;;;7.40;2.63;;;;;;;0.04;77.08;94200.44;4933369;29;20087;-48
2021/01/25 10:30:24;;;;;;;5.93;2.38;;;;;;;-0.37;78.58;94201.50;4914291;29;20107;-50
2021/01/25 10:32:50;;;;;;;5.88;2.83;;;;;;;0.04;77.39;94206.53;4937458;28;20056;-49
2021/01/25 10:35:17;;;;;;;6.55;2.50;;;;;;;-0.56;79.79;94202.50;4921866;29;20052;-49
2021/01/25 10:37:44;;;;;;;3.95;2.50;;;;;;;-0.25;78.76;94207.81;4914200;29;20210;-49
2021/01/25 10:40:12;;;;;;;4.88;2.72;;;;;;;-0.39;79.73;94201.81;4918781;29;20135;-49
2021/01/25 10:42:38;;;;;;;6.35;3.20;;;;;;;-0.36;79.28;94201.19;4937005;29;20107;-52
2021/01/25 10:45:05;;;;;;;5.13;2.72;;;;;;;-0.30;79.59;94215.91;4917642;29;20056;-51
2021/01/25 10:47:32;;;;;;;10.10;2.65;;;;;;;-0.23;79.35;94212.81;4917649;29;20052;-51
2021/01/25 10:49:59;;;;;;;6.25;3.58;;;;;;;-0.09;78.73;94213.53;4913567;29;20043;-52
2021/01/25 10:52:25;;;;;;;3.60;2.50;;;;;;;0.11;78.55;94206.88;4916964;29;20044;-51
2021/01/25 10:54:54;;;;;;;5.72;2.80;;;;;;;-0.15;79.00;94224.59;4915665;29;20048;-48
2021/01/25 10:57:21;;;;;;;7.00;3.05;;;;;;;-0.22;79.94;94218.94;4918023;29;20056;-50
2021/01/25 10:59:47;;;;;;;10.70;3.53;;;;;;;-0.51;80.66;94218.31;4915508;29;20059;-50
2021/01/25 11:02:14;;;;;;;10.52;3.72;;;;;;;-0.69;82.17;94216.63;4921679;29;20158;-50
2021/01/25 11:04:40;;;;;;;6.18;3.80;;;;;;;-0.95;83.03;94227.06;4918565;29;20060;-48
2021/01/25 11:07:07;;;;;;;6.13;4.00;;;;;;;-0.75;82.42;94223.97;4916733;29;20107;-51
2021/01/25 11:09:33;;;;;;;7.40;4.10;;;;;;;-0.87;82.87;94231.69;4917750;29;20115;-50
2021/01/25 11:12:00;;;;;;;11.27;4.20;;;;;;;-1.08;83.24;94235.88;4918305;29;20048;-49
2021/01/25 11:14:27;;;;;;;8.68;4.35;;;;;;;-1.06;83.78;94239.81;4920734;29;20131;-49
2021/01/25 11:16:53;;;;;;;8.70;4.70;;;;;;;-0.84;82.99;94249.66;4900560;29;20140;-52
2021/01/25 11:19:20;;;;;;;8.60;5.32;;;;;;;-0.76;81.95;94242.84;4916364;29;20493;-52
2021/01/25 11:21:47;;;;;;;9.18;5.28;;;;;;;-0.58;81.25;94228.59;4926734;29;20138;-51
2021/01/25 11:24:13;;;;;;;7.43;4.82;;;;;;;-0.67;81.52;94242.91;4935572;29;20059;-49
2021/01/25 11:26:41;;;;;;;11.13;5.35;;;;;;;-0.59;80.06;94236.84;4926343;29;20461;-53
2021/01/25 11:29:09;;;;;;;10.32;5.10;;;;;;;-0.25;79.73;94250.34;4929786;29;20080;-51
2021/01/25 11:31:35;;;;;;;12.00;5.47;;;;;;;-0.37;80.31;94252.78;4916330;29;20052;-51
2021/01/25 11:34:02;;;;;;;7.13;5.18;;;;;;;-0.58;81.97;94257.03;4921203;29;20051;-50
2021/01/25 11:36:29;;;;;;;10.88;5.00;;;;;;;-0.11;81.02;94257.44;4936561;29;20585;-52
2021/01/25 11:38:55;;;;;;;7.45;4.07;;;;;;;-0.12;80.31;94261.19;4921657;29;20451;-48
2021/01/25 11:41:21;;;;;;;7.00;4.80;;;;;;;-0.07;79.95;94253.06;4917291;29;20130;-47
2021/01/25 11:43:48;;;;;;;6.70;3.97;;;;;;;0.20;79.19;94258.22;4932766;29;20474;-52